createdAt,value
2019-03-20T00:04:16.345Z,1.40
2019-03-20T00:09:20.022Z,1.30
2019-03-20T00:14:23.713Z,1.30
2019-03-20T00:19:27.389Z,1.30
2019-03-20T00:24:31.067Z,1.30
2019-03-20T00:29:34.749Z,1.30
2019-03-20T00:34:38.435Z,1.20
2019-03-20T00:39:42.122Z,1.10
2019-03-20T00:44:47.099Z,1.10
2019-03-20T00:49:50.832Z,1.10
2019-03-20T00:54:54.508Z,1.00
2019-03-20T00:59:58.170Z,1.00
2019-03-20T01:05:12.209Z,0.90
2019-03-20T01:10:09.027Z,0.90
2019-03-20T01:15:12.952Z,0.80
2019-03-20T01:20:17.456Z,0.70
2019-03-20T01:25:21.376Z,0.70
2019-03-20T01:30:32.091Z,0.60
2019-03-20T01:35:35.794Z,0.60
2019-03-20T01:40:40.442Z,0.60
2019-03-20T01:45:44.667Z,0.50
2019-03-20T01:50:48.649Z,0.40
2019-03-20T01:55:52.334Z,0.40
2019-03-20T02:00:56.022Z,0.40
2019-03-20T02:05:59.869Z,0.40
2019-03-20T02:11:03.641Z,0.40
2019-03-20T02:16:07.317Z,0.40
2019-03-20T02:21:11.005Z,0.40
2019-03-20T02:26:14.931Z,0.40
2019-03-20T02:31:18.649Z,0.30
2019-03-20T02:36:22.634Z,0.30
2019-03-20T02:41:26.353Z,0.30
2019-03-20T02:46:30.036Z,0.30
2019-03-20T02:51:33.706Z,0.30
2019-03-20T02:56:37.420Z,0.30
2019-03-20T03:01:41.353Z,0.20
2019-03-20T03:06:45.022Z,0.20
2019-03-20T03:11:48.690Z,0.20
2019-03-20T03:16:52.365Z,0.20
2019-03-20T03:21:56.040Z,0.10
2019-03-20T03:26:59.786Z,0.10
2019-03-20T03:32:03.481Z,0.10
2019-03-20T03:37:07.241Z,0.10
2019-03-20T03:42:10.935Z,0.10
2019-03-20T03:47:14.615Z,0.00
2019-03-20T03:52:18.630Z,0.00
2019-03-20T03:57:22.374Z,0.00
2019-03-20T04:02:26.037Z,0.00
2019-03-20T04:07:29.711Z,-0.10
2019-03-20T04:12:33.397Z,-0.10
2019-03-20T04:17:37.078Z,-0.20
2019-03-20T04:22:40.766Z,-0.20
2019-03-20T04:27:44.517Z,-0.20
2019-03-20T04:32:48.718Z,-0.20
2019-03-20T04:37:52.403Z,-0.20
2019-03-20T04:42:56.069Z,-0.20
2019-03-20T04:47:59.739Z,-0.20
2019-03-20T04:53:03.413Z,-0.20
2019-03-20T04:58:07.083Z,-0.20
2019-03-20T05:03:10.757Z,-0.20
2019-03-20T05:08:14.441Z,-0.20
2019-03-20T05:13:18.349Z,-0.20
2019-03-20T05:18:22.021Z,-0.20
2019-03-20T05:23:25.694Z,-0.20
2019-03-20T05:28:29.609Z,-0.20
2019-03-20T05:33:33.263Z,-0.20
2019-03-20T05:38:36.943Z,-0.20
2019-03-20T05:43:40.604Z,-0.20
2019-03-20T05:48:44.395Z,-0.20
2019-03-20T05:53:48.094Z,-0.10
2019-03-20T05:58:51.793Z,-0.10
2019-03-20T06:03:55.569Z,0.00
2019-03-20T06:08:59.313Z,0.00
2019-03-20T06:14:02.985Z,0.10
2019-03-20T06:19:06.886Z,0.10
2019-03-20T06:24:10.556Z,0.20
2019-03-20T06:29:14.247Z,0.30
2019-03-20T06:34:18.069Z,0.40
2019-03-20T06:39:21.755Z,0.60
2019-03-20T06:44:25.440Z,0.70
2019-03-20T06:49:29.563Z,0.90
2019-03-20T06:54:33.307Z,1.00
2019-03-20T07:00:15.994Z,1.10
2019-03-20T07:06:01.942Z,1.20
2019-03-20T07:11:08.277Z,1.40
2019-03-20T07:16:12.128Z,1.50
2019-03-20T07:21:15.814Z,1.60
2019-03-20T07:26:19.501Z,1.70
2019-03-20T07:31:23.178Z,1.80
2019-03-20T07:36:26.912Z,2.00
2019-03-20T07:41:30.575Z,2.10
2019-03-20T07:46:35.182Z,2.20
2019-03-20T07:51:39.095Z,2.40
2019-03-20T07:56:42.778Z,2.60
2019-03-20T08:01:46.521Z,2.70
2019-03-20T08:06:50.166Z,2.90
2019-03-20T08:11:53.840Z,3.10
2019-03-20T08:16:57.573Z,3.40
2019-03-20T08:22:01.242Z,3.60
2019-03-20T08:27:04.982Z,3.80
2019-03-20T08:32:08.640Z,4.00
2019-03-20T08:37:12.313Z,4.30
2019-03-20T08:42:15.998Z,4.50
2019-03-20T08:47:19.666Z,4.60
2019-03-20T08:52:23.331Z,4.80
2019-03-20T08:57:27.006Z,5.00
2019-03-20T09:02:30.694Z,5.20
2019-03-20T09:07:34.392Z,5.40
2019-03-20T09:12:38.047Z,5.60
2019-03-20T09:17:41.751Z,5.80
2019-03-20T09:22:45.801Z,5.90
2019-03-20T09:27:49.553Z,6.10
2019-03-20T09:32:53.294Z,6.30
2019-03-20T09:37:56.973Z,6.50
2019-03-20T09:43:00.895Z,6.60
2019-03-20T09:48:04.658Z,6.80
2019-03-20T09:53:08.345Z,6.90
2019-03-20T09:58:12.165Z,7.10
2019-03-20T10:03:15.887Z,7.30
2019-03-20T10:08:19.578Z,7.40
2019-03-20T10:13:23.246Z,7.50
2019-03-20T10:18:26.932Z,7.60
2019-03-20T10:23:32.310Z,7.80
2019-03-20T10:28:35.995Z,7.90
2019-03-20T10:33:39.685Z,8.10
2019-03-20T10:38:43.706Z,8.30
2019-03-20T10:43:47.413Z,8.50
2019-03-20T10:48:51.090Z,8.60
2019-03-20T10:53:54.758Z,8.80
2019-03-20T10:58:58.454Z,8.90
2019-03-20T11:04:02.143Z,9.00
2019-03-20T11:09:17.626Z,9.10
2019-03-20T11:14:13.116Z,9.30
2019-03-20T11:19:16.846Z,9.40
2019-03-20T11:24:20.614Z,9.60
2019-03-20T11:29:25.424Z,9.70
2019-03-20T11:34:29.267Z,9.90
2019-03-20T11:39:34.627Z,10.00
2019-03-20T11:44:38.319Z,10.10
2019-03-20T11:49:42.007Z,10.10
2019-03-20T11:54:45.869Z,10.20
2019-03-20T11:59:56.532Z,10.30
2019-03-20T12:05:00.374Z,10.40
2019-03-20T12:10:12.869Z,10.50
2019-03-20T12:15:16.878Z,10.60
2019-03-20T12:20:20.715Z,10.70
2019-03-20T12:25:26.362Z,10.80
2019-03-20T12:30:30.145Z,10.90
2019-03-20T12:35:33.907Z,11.00
2019-03-20T12:40:37.680Z,11.10
2019-03-20T12:45:41.570Z,11.10
2019-03-20T12:50:45.338Z,11.20
2019-03-20T12:55:49.025Z,11.30
2019-03-20T13:00:54.512Z,11.30
2019-03-20T13:05:58.123Z,11.40
2019-03-20T13:11:01.815Z,11.40
2019-03-20T13:16:05.777Z,11.50
2019-03-20T13:21:09.521Z,11.60
2019-03-20T13:26:13.198Z,11.60
2019-03-20T13:31:19.287Z,11.70
2019-03-20T13:36:22.957Z,11.70
2019-03-20T13:41:37.074Z,11.80
2019-03-20T13:46:34.211Z,11.80
2019-03-20T13:51:37.899Z,11.90
2019-03-20T13:56:41.999Z,11.90
2019-03-20T14:01:45.718Z,12.00
2019-03-20T14:06:49.390Z,12.00
2019-03-20T14:11:53.079Z,12.00
2019-03-20T14:16:56.738Z,12.00
2019-03-20T14:22:00.427Z,12.00
2019-03-20T14:27:04.235Z,12.00
2019-03-20T14:32:08.250Z,12.00
2019-03-20T14:37:11.933Z,12.00
2019-03-20T14:42:15.614Z,12.00
2019-03-20T14:47:19.285Z,12.00
2019-03-20T14:52:22.990Z,12.00
2019-03-20T14:57:26.735Z,12.00
2019-03-20T15:02:30.477Z,12.00
2019-03-20T15:07:34.521Z,12.00
2019-03-20T15:12:38.201Z,12.00
2019-03-20T15:17:42.722Z,12.00
2019-03-20T15:22:46.651Z,12.00
2019-03-20T15:27:50.421Z,12.00
2019-03-20T15:32:54.238Z,12.00
2019-03-20T15:37:58.011Z,12.00
2019-03-20T15:43:01.717Z,12.00
2019-03-20T15:48:05.416Z,12.00
2019-03-20T15:53:09.431Z,12.00
2019-03-20T15:58:13.181Z,12.00
2019-03-20T16:03:20.032Z,11.90
2019-03-20T16:08:23.744Z,11.90
2019-03-20T16:13:27.447Z,11.90
2019-03-20T16:18:31.149Z,11.80
2019-03-20T16:23:34.856Z,11.80
2019-03-20T16:28:38.534Z,11.80
2019-03-20T16:33:42.261Z,11.80
2019-03-20T16:38:48.463Z,11.70
2019-03-20T16:43:52.165Z,11.70
2019-03-20T16:48:56.421Z,11.60
2019-03-20T16:54:00.126Z,11.60
2019-03-20T16:59:03.960Z,11.60
2019-03-20T17:04:07.691Z,11.60
2019-03-20T17:09:11.423Z,11.60
2019-03-20T17:14:15.398Z,11.50
2019-03-20T17:19:19.070Z,11.50
2019-03-20T17:24:22.805Z,11.50
2019-03-20T17:29:26.946Z,11.40
2019-03-20T17:34:31.534Z,11.40
2019-03-20T17:39:35.757Z,11.40
2019-03-20T17:44:39.810Z,11.30
2019-03-20T17:49:43.922Z,11.30
2019-03-20T17:54:47.869Z,11.30
2019-03-20T17:59:51.899Z,11.30
2019-03-20T18:04:55.586Z,11.30
2019-03-20T18:09:59.281Z,11.20
2019-03-20T18:15:03.204Z,11.20
2019-03-20T18:20:07.983Z,11.10
2019-03-20T18:25:12.110Z,11.10
2019-03-20T18:30:22.426Z,11.10
2019-03-20T18:35:26.191Z,11.00
2019-03-20T18:40:29.955Z,11.00
2019-03-20T18:45:33.728Z,11.00
2019-03-20T18:50:37.448Z,11.00
2019-03-20T18:55:41.349Z,10.90
2019-03-20T19:00:45.046Z,10.90
2019-03-20T19:06:00.907Z,10.90
2019-03-20T19:11:05.052Z,10.80
2019-03-20T19:16:09.394Z,10.80
2019-03-20T19:21:13.139Z,10.80
2019-03-20T19:26:16.849Z,10.80
2019-03-20T19:31:20.526Z,10.80
2019-03-20T19:36:24.519Z,10.70
2019-03-20T19:41:28.224Z,10.70
2019-03-20T19:46:31.897Z,10.70
2019-03-20T19:51:35.599Z,10.70
2019-03-20T19:56:39.290Z,10.70
2019-03-20T20:01:43.030Z,10.70
2019-03-20T20:06:47.141Z,10.70
2019-03-20T20:11:53.228Z,10.60
2019-03-20T20:16:57.418Z,10.60
2019-03-20T20:22:01.516Z,10.60
2019-03-20T20:27:05.520Z,10.60
2019-03-20T20:32:09.476Z,10.60
2019-03-20T20:37:13.827Z,10.60
2019-03-20T20:42:18.083Z,10.60
2019-03-20T20:47:22.166Z,10.60
2019-03-20T20:52:26.179Z,10.60
2019-03-20T20:57:30.565Z,10.60
2019-03-20T21:02:34.759Z,10.60
2019-03-20T21:07:40.004Z,10.50
2019-03-20T21:12:55.188Z,10.50
2019-03-20T21:18:15.740Z,10.50
2019-03-20T21:24:08.865Z,10.50
2019-03-20T21:29:49.983Z,10.50
2019-03-20T21:35:34.156Z,10.50
2019-03-20T21:41:00.593Z,10.50
2019-03-20T21:47:02.184Z,10.50
2019-03-20T21:52:06.407Z,10.40
2019-03-20T21:57:42.886Z,10.40
2019-03-20T22:02:47.461Z,10.40
2019-03-20T22:07:51.667Z,10.40
2019-03-20T22:13:18.077Z,10.30
2019-03-20T22:18:53.161Z,10.30
2019-03-20T22:24:38.306Z,10.30
2019-03-20T22:29:42.517Z,10.30
2019-03-20T22:35:17.267Z,10.30
2019-03-20T22:41:10.465Z,10.20
2019-03-20T22:46:46.459Z,10.10
2019-03-20T22:52:20.522Z,10.10
2019-03-20T22:58:13.311Z,10.10
2019-03-20T23:03:25.954Z,10.10
2019-03-20T23:08:30.195Z,10.00
2019-03-20T23:13:41.496Z,10.00
2019-03-20T23:18:40.595Z,10.00
2019-03-20T23:23:44.809Z,9.90
2019-03-20T23:28:49.010Z,9.90
2019-03-20T23:33:53.482Z,9.90
2019-03-20T23:38:57.693Z,9.80
2019-03-20T23:44:01.919Z,9.80
2019-03-20T23:49:12.649Z,9.80
2019-03-20T23:54:19.543Z,9.80
2019-03-20T23:59:23.745Z,9.80
